Time;durP1;ratioP1;P1;durP2;ratioP2;P2;SDS_P1;SDS_P2;PMS_P1;PMS_P2;Temp;Humidity;BMP_temperature;BMP_pressure;BME280_temperature;BME280_humidity;BME280_pressure;Samples;Min_cycle;Max_cycle;Signal;HPM_P1;HPM_P2
2021/03/31 00:00:21;;;;;;;67.60;22.37;;;;;;;-3.15;79.19;102326.27;1789935;80;21136;-42
2021/03/31 00:02:55;;;;;;;74.50;22.98;;;;;;;-3.21;79.42;102325.45;1755394;80;21561;-41
2021/03/31 00:05:23;;;;;;;80.72;25.10;;;;;;;-3.27;79.81;102325.05;1790000;80;22234;-44
2021/03/31 00:07:51;;;;;;;76.62;25.45;;;;;;;-3.26;80.30;102322.14;1789921;80;20932;-42
2021/03/31 00:10:28;;;;;;;63.80;22.60;;;;;;;-3.31;80.39;102321.81;1789955;80;20962;-43
2021/03/31 00:12:56;;;;;;;76.30;24.77;;;;;;;-3.35;80.71;102319.86;1789930;80;21194;-42
2021/03/31 00:15:24;;;;;;;50.88;21.02;;;;;;;-3.37;81.10;102317.61;1789780;80;20955;-43
2021/03/31 00:17:54;;;;;;;54.55;19.25;;;;;;;-3.39;81.19;102321.69;1785555;80;20990;-43
2021/03/31 00:20:22;;;;;;;43.02;18.95;;;;;;;-3.39;81.36;102323.81;1789835;80;21072;-43
2021/03/31 00:22:50;;;;;;;50.43;20.50;;;;;;;-3.36;81.27;102318.09;1790031;80;21527;-43
2021/03/31 00:25:18;;;;;;;47.43;17.90;;;;;;;-3.34;81.25;102326.27;1789954;80;21314;-46
2021/03/31 00:27:46;;;;;;;48.40;19.12;;;;;;;-3.33;81.11;102322.96;1789985;80;21379;-42
2021/03/31 00:30:15;;;;;;;57.20;19.87;;;;;;;-3.32;81.00;102318.80;1789900;80;20962;-45
2021/03/31 00:32:43;;;;;;;50.63;19.50;;;;;;;-3.31;81.04;102320.55;1789885;80;20983;-43
2021/03/31 00:35:12;;;;;;;61.92;21.15;;;;;;;-3.27;81.09;102316.17;1789890;80;20899;-40
2021/03/31 00:37:40;;;;;;;59.63;22.70;;;;;;;-3.21;81.84;102313.19;1789893;80;21367;-44
2021/03/31 00:40:11;;;;;;;63.83;23.15;;;;;;;-3.19;82.01;102316.70;1789945;78;21089;-42
2021/03/31 00:42:39;;;;;;;57.93;24.90;;;;;;;-3.18;82.07;102315.52;1789954;80;21014;-43
2021/03/31 00:45:08;;;;;;;68.12;23.73;;;;;;;-3.18;82.36;102312.98;1789924;80;20959;-43
2021/03/31 00:47:36;;;;;;;59.70;24.45;;;;;;;-3.20;82.63;102318.34;1790022;80;21002;-43
2021/03/31 00:50:08;;;;;;;55.75;23.70;;;;;;;-3.24;82.79;102319.32;1790020;80;21618;-41
2021/03/31 00:52:36;;;;;;;60.52;23.32;;;;;;;-3.28;83.50;102314.42;1789812;80;20907;-44
2021/03/31 00:55:07;;;;;;;51.77;22.45;;;;;;;-3.30;83.86;102309.64;1789889;80;21078;-41
2021/03/31 00:57:35;;;;;;;71.60;21.87;;;;;;;-3.29;84.19;102308.86;1790004;80;21543;-41
2021/03/31 01:00:07;;;;;;;58.63;20.80;;;;;;;-3.29;84.14;102310.12;1789926;80;20939;-43
2021/03/31 01:02:37;;;;;;;47.27;20.43;;;;;;;-3.35;84.16;102310.58;1789871;80;21117;-43
2021/03/31 01:05:12;;;;;;;42.27;20.10;;;;;;;-3.43;84.10;102310.83;1789859;80;21606;-42
2021/03/31 01:07:42;;;;;;;65.25;21.23;;;;;;;-3.53;84.15;102308.94;1789854;80;21009;-42
2021/03/31 01:10:12;;;;;;;60.65;22.90;;;;;;;-3.62;84.29;102307.05;1789865;80;20940;-41
2021/03/31 01:13:12;;;;;;;57.98;21.15;;;;;;;-3.69;84.52;102307.00;1790002;80;20966;-42
2021/03/31 01:16:17;;;;;;;54.75;23.07;;;;;;;-3.76;84.77;102303.16;1789844;80;21317;-42
2021/03/31 01:19:08;;;;;;;54.35;22.62;;;;;;;-3.81;85.07;102298.53;1789862;80;21080;-40
2021/03/31 01:22:28;;;;;;;65.80;23.55;;;;;;;-3.82;85.38;102296.78;1789099;80;21037;-43
2021/03/31 01:25:28;;;;;;;60.23;22.93;;;;;;;-3.87;85.39;102291.42;1789860;80;21078;-41
2021/03/31 01:28:10;;;;;;;56.95;24.23;;;;;;;-3.94;85.56;102295.53;1789516;80;20943;-42
2021/03/31 01:31:07;;;;;;;65.05;27.10;;;;;;;-4.00;85.85;102290.05;1789876;80;21105;-44
2021/03/31 01:34:21;;;;;;;49.70;23.52;;;;;;;-4.02;86.09;102289.06;1789937;80;21563;-42
2021/03/31 01:36:50;;;;;;;65.20;26.10;;;;;;;-3.98;86.36;102296.09;1712361;83;21018;-43
2021/03/31 01:39:17;;;;;;;74.40;25.97;;;;;;;-3.96;86.63;102289.48;1781401;80;21581;-40
2021/03/31 01:41:45;;;;;;;61.33;26.10;;;;;;;-3.94;86.85;102290.47;1759628;80;20892;-40
2021/03/31 01:44:15;;;;;;;52.73;24.12;;;;;;;-3.92;86.89;102289.82;1789855;80;21132;-42
2021/03/31 01:46:46;;;;;;;67.35;24.00;;;;;;;-3.88;86.91;102290.03;1789847;80;20994;-42
2021/03/31 01:49:14;;;;;;;44.27;22.60;;;;;;;-3.84;86.92;102286.94;1789615;80;21634;-41
2021/03/31 01:51:41;;;;;;;50.95;24.35;;;;;;;-3.83;86.94;102284.90;1789812;80;21601;-42
2021/03/31 01:54:10;;;;;;;50.00;23.22;;;;;;;-3.84;87.09;102283.14;1789896;80;21026;-44
2021/03/31 01:56:38;;;;;;;50.40;24.02;;;;;;;-3.79;87.43;102280.53;1789906;80;21318;-44
2021/03/31 01:59:06;;;;;;;48.90;21.27;;;;;;;-3.74;87.39;102284.30;1759922;80;21021;-43
2021/03/31 02:01:34;;;;;;;57.88;23.83;;;;;;;-3.75;87.37;102280.00;1789908;80;20927;-42
2021/03/31 02:04:02;;;;;;;49.98;22.58;;;;;;;-3.83;87.24;102279.47;1789949;80;21335;-44
2021/03/31 02:06:33;;;;;;;53.85;24.92;;;;;;;-3.90;87.31;102277.29;1790008;80;21060;-43
2021/03/31 02:09:01;;;;;;;47.35;24.92;;;;;;;-3.94;87.58;102277.45;1789945;80;21197;-42
2021/03/31 02:11:29;;;;;;;48.35;24.40;;;;;;;-3.93;87.77;102275.78;1789774;80;21033;-41
2021/03/31 02:13:58;;;;;;;49.80;22.82;;;;;;;-3.94;87.84;102277.81;1789919;80;21500;-42
2021/03/31 02:16:27;;;;;;;46.77;22.02;;;;;;;-3.93;87.85;102279.58;1793168;80;21011;-41
2021/03/31 02:18:55;;;;;;;48.17;21.25;;;;;;;-3.96;87.82;102283.16;1767405;80;21500;-41
2021/03/31 02:21:22;;;;;;;56.08;22.48;;;;;;;-3.99;87.81;102281.69;1793445;80;21193;-42
2021/03/31 02:23:51;;;;;;;51.98;24.98;;;;;;;-4.02;87.79;102281.47;1767115;80;20976;-43
2021/03/31 02:26:19;;;;;;;66.97;30.68;;;;;;;-4.09;87.75;102281.41;1793564;79;21011;-44
2021/03/31 02:28:48;;;;;;;67.85;28.15;;;;;;;-4.14;87.87;102287.81;1793478;80;21647;-42
2021/03/31 02:31:16;;;;;;;56.85;25.90;;;;;;;-4.17;88.06;102286.33;1793460;80;20988;-42
2021/03/31 02:33:44;;;;;;;62.65;25.95;;;;;;;-4.21;88.11;102290.28;1793427;80;21356;-43
2021/03/31 02:36:13;;;;;;;56.98;24.32;;;;;;;-4.26;88.09;102286.17;1793312;80;20971;-40
2021/03/31 02:38:43;;;;;;;47.88;22.17;;;;;;;-4.27;88.07;102283.52;1793539;79;20912;-42
2021/03/31 02:41:11;;;;;;;58.38;23.92;;;;;;;-4.30;88.09;102285.44;1793532;78;21134;-43
2021/03/31 02:43:43;;;;;;;55.05;21.70;;;;;;;-4.34;88.14;102288.16;1793535;79;20980;-41
2021/03/31 02:46:15;;;;;;;64.00;25.85;;;;;;;-4.38;88.26;102283.65;1793434;80;22254;-43
2021/03/31 02:48:42;;;;;;;56.70;25.10;;;;;;;-4.41;88.27;102280.00;1793408;80;20941;-43
2021/03/31 02:51:12;;;;;;;59.95;26.10;;;;;;;-4.41;88.44;102280.91;1793533;79;20991;-42
2021/03/31 02:53:40;;;;;;;63.30;27.55;;;;;;;-4.39;88.75;102274.67;1793523;80;21071;-43
2021/03/31 02:56:09;;;;;;;67.12;26.90;;;;;;;-4.37;88.99;102274.02;1793483;79;21086;-43
2021/03/31 02:58:40;;;;;;;77.15;26.77;;;;;;;-4.33;89.16;102278.53;1793574;80;22128;-43
2021/03/31 03:01:07;;;;;;;54.88;25.52;;;;;;;-4.30;89.26;102281.64;1793472;80;20996;-43
2021/03/31 03:03:35;;;;;;;53.13;25.92;;;;;;;-4.24;89.38;102283.38;1793694;79;21004;-41
2021/03/31 03:06:04;;;;;;;51.58;24.07;;;;;;;-4.17;89.44;102288.86;1793606;80;21074;-42
2021/03/31 03:08:31;;;;;;;47.75;24.12;;;;;;;-4.15;89.33;102283.15;1793703;80;21098;-43
2021/03/31 03:11:00;;;;;;;61.95;25.02;;;;;;;-4.18;89.23;102276.58;1793665;80;21374;-43
2021/03/31 03:13:29;;;;;;;61.80;27.35;;;;;;;-4.22;89.19;102278.03;1793554;80;21011;-40
2021/03/31 03:15:57;;;;;;;80.40;26.87;;;;;;;-4.24;89.24;102282.11;1791386;80;21046;-43
2021/03/31 03:18:25;;;;;;;107.40;28.70;;;;;;;-4.27;89.31;102280.63;1790056;80;21519;-43
2021/03/31 03:20:54;;;;;;;142.00;29.45;;;;;;;-4.27;89.42;102283.16;1789979;80;20943;-40
2021/03/31 03:23:22;;;;;;;107.43;29.15;;;;;;;-4.27;89.53;102279.73;1789995;80;21118;-42
2021/03/31 03:25:51;;;;;;;132.78;30.70;;;;;;;-4.24;89.75;102277.41;1789672;80;20962;-42
2021/03/31 03:28:21;;;;;;;118.05;28.95;;;;;;;-4.23;89.77;102276.64;1790012;80;21006;-41
2021/03/31 03:30:49;;;;;;;95.80;28.45;;;;;;;-4.23;89.88;102275.38;1789907;80;20998;-42
2021/03/31 03:33:17;;;;;;;64.47;27.93;;;;;;;-4.20;90.12;102267.63;1789987;80;20923;-43
2021/03/31 03:35:45;;;;;;;61.68;28.35;;;;;;;-4.13;90.38;102274.38;1789905;80;21136;-41
2021/03/31 03:38:14;;;;;;;56.18;25.95;;;;;;;-4.05;90.48;102271.63;1759625;80;20942;-41
2021/03/31 03:40:45;;;;;;;51.65;26.02;;;;;;;-3.98;90.53;102270.42;1789942;78;20998;-41
2021/03/31 03:43:16;;;;;;;59.53;25.68;;;;;;;-3.95;90.38;102272.27;1789925;80;20939;-43
2021/03/31 03:45:44;;;;;;;55.73;25.90;;;;;;;-3.93;90.33;102270.72;1789973;80;21021;-42
2021/03/31 03:48:13;;;;;;;51.08;26.73;;;;;;;-3.87;90.38;102267.37;1790039;80;22294;-42
2021/03/31 03:50:40;;;;;;;66.57;27.85;;;;;;;-3.79;90.55;102272.58;1759603;80;21002;-40
2021/03/31 03:53:08;;;;;;;71.62;28.47;;;;;;;-3.70;90.36;102280.30;1790030;80;20998;-43
2021/03/31 03:55:36;;;;;;;71.02;28.10;;;;;;;-3.67;90.22;102275.45;1789943;80;21013;-42
2021/03/31 03:58:09;;;;;;;64.10;28.00;;;;;;;-3.63;90.17;102269.84;1790048;80;21005;-42
2021/03/31 04:00:37;;;;;;;74.58;30.43;;;;;;;-3.56;90.21;102274.92;1789992;80;21365;-41
2021/03/31 04:03:05;;;;;;;59.67;26.73;;;;;;;-3.42;90.37;102269.53;1790007;80;21662;-42
2021/03/31 04:05:33;;;;;;;54.70;25.85;;;;;;;-3.29;90.35;102269.97;1789921;80;20958;-42
2021/03/31 04:08:01;;;;;;;65.95;27.37;;;;;;;-3.12;90.47;102273.66;1723733;80;69908;-43
2021/03/31 04:10:29;;;;;;;57.83;24.87;;;;;;;-2.90;90.56;102270.52;1639470;87;21054;-42
2021/03/31 04:12:59;;;;;;;43.70;23.05;;;;;;;-2.64;90.61;102271.34;1639551;87;21214;-42
2021/03/31 04:42:14;;;;;;;38.58;24.60;;;;;;;-0.26;89.95;102254.00;1811999;78;22235;-40
2021/03/31 04:44:42;;;;;;;31.57;20.02;;;;;;;-0.08;89.56;102257.56;1791946;80;21045;-41
2021/03/31 04:47:10;;;;;;;30.55;18.52;;;;;;;0.14;89.23;102249.80;1791982;80;21192;-40
2021/03/31 04:49:37;;;;;;;32.55;19.82;;;;;;;0.34;88.70;102246.13;1792008;80;21538;-41
2021/03/31 04:52:06;;;;;;;32.60;20.35;;;;;;;0.52;88.26;102248.38;1792002;80;21001;-41
2021/03/31 04:54:34;;;;;;;31.68;20.65;;;;;;;0.70;87.88;102245.88;1791873;80;21076;-41
2021/03/31 04:57:03;;;;;;;28.70;19.55;;;;;;;0.90;87.42;102251.53;1791979;80;21037;-41
2021/03/31 04:59:31;;;;;;;31.37;21.02;;;;;;;1.11;87.13;102245.34;1791972;80;21241;-41
2021/03/31 05:01:58;;;;;;;33.25;19.07;;;;;;;1.32;86.46;102239.13;1791821;80;21004;-41
2021/03/31 05:04:26;;;;;;;32.85;19.30;;;;;;;1.54;86.00;102242.32;1791937;80;20969;-41
2021/03/31 05:06:55;;;;;;;33.42;19.95;;;;;;;1.76;85.61;102244.58;1791829;80;21052;-41
2021/03/31 05:09:23;;;;;;;29.63;20.50;;;;;;;1.95;84.60;102246.72;1791940;80;20946;-41
2021/03/31 05:11:51;;;;;;;32.20;20.27;;;;;;;2.07;83.97;102242.56;1792034;80;21265;-41
2021/03/31 05:14:18;;;;;;;30.27;20.30;;;;;;;2.20;83.17;102242.33;1791906;80;20962;-41
2021/03/31 05:16:48;;;;;;;32.28;19.17;;;;;;;2.34;82.42;102239.11;1791848;80;21005;-41
2021/03/31 05:19:16;;;;;;;30.00;19.55;;;;;;;2.52;81.65;102227.52;1791905;80;21025;-41
2021/03/31 05:21:43;;;;;;;29.60;20.40;;;;;;;2.69;80.49;102227.38;1791888;80;20978;-41
2021/03/31 05:24:11;;;;;;;32.93;20.35;;;;;;;2.80;79.88;102221.44;1791931;80;21343;-41
2021/03/31 05:26:39;;;;;;;33.15;20.43;;;;;;;2.92;79.19;102219.38;1791856;80;20977;-41
2021/03/31 05:29:06;;;;;;;34.60;20.37;;;;;;;3.04;78.23;102230.95;1791909;79;20947;-41
2021/03/31 05:31:34;;;;;;;27.40;19.57;;;;;;;3.14;77.67;102226.23;1791876;79;20946;-41
2021/03/31 05:34:02;;;;;;;27.05;19.15;;;;;;;3.30;76.86;102225.20;1791935;80;22509;-41
2021/03/31 05:36:30;;;;;;;25.97;17.27;;;;;;;3.41;76.24;102226.91;1791915;80;21442;-41
2021/03/31 05:38:58;;;;;;;31.65;17.02;;;;;;;3.39;75.10;102224.66;1791804;80;20990;-42
2021/03/31 05:41:27;;;;;;;26.23;17.62;;;;;;;3.42;74.77;102218.41;1764744;79;21021;-42
2021/03/31 05:43:55;;;;;;;26.73;16.80;;;;;;;3.50;74.48;102222.95;1758525;81;21029;-42
2021/03/31 05:46:22;;;;;;;37.38;18.65;;;;;;;3.58;73.82;102225.00;1758446;81;21021;-42
2021/03/31 05:48:51;;;;;;;61.18;19.00;;;;;;;3.91;72.52;102222.36;1758478;81;21384;-42
2021/03/31 05:51:18;;;;;;;27.98;17.45;;;;;;;3.91;72.52;102222.36;1758331;81;20990;-42
2021/03/31 05:53:46;;;;;;;22.52;15.48;;;;;;;4.10;71.84;102213.69;1757901;81;21045;-42
2021/03/31 05:56:14;;;;;;;22.40;13.78;;;;;;;4.31;71.14;102214.86;1757868;81;21021;-42
2021/03/31 05:58:42;;;;;;;23.67;14.13;;;;;;;4.64;70.68;102209.97;1757880;81;21009;-42
2021/03/31 06:01:11;;;;;;;21.23;12.78;;;;;;;5.40;68.22;102208.16;1757856;81;21438;-42
2021/03/31 06:03:38;;;;;;;15.55;10.15;;;;;;;5.40;68.22;102208.16;1757792;80;21017;-43
2021/03/31 06:06:06;;;;;;;12.90;7.58;;;;;;;5.69;66.48;102209.48;1757863;81;21018;-42
2021/03/31 06:08:34;;;;;;;8.10;6.83;;;;;;;5.89;64.79;102209.18;1757849;81;20954;-42
2021/03/31 06:11:02;;;;;;;10.25;6.95;;;;;;;6.03;62.82;102214.35;1757896;81;21022;-42
2021/03/31 06:13:53;;;;;;;11.65;8.55;;;;;;;6.11;61.61;102207.26;1757890;81;21198;-43
2021/03/31 06:16:32;;;;;;;12.20;6.47;;;;;;;6.10;61.22;102218.38;1757792;81;21018;-41
2021/03/31 06:19:20;;;;;;;12.98;7.87;;;;;;;6.07;61.25;102208.89;1757875;81;21000;-42
2021/03/31 06:22:07;;;;;;;12.15;7.53;;;;;;;6.15;60.77;102203.94;1757824;81;21033;-42
2021/03/31 06:24:32;;;;;;;13.62;7.28;;;;;;;6.22;60.25;102207.56;1757162;81;21013;-42
2021/03/31 06:26:59;;;;;;;12.78;7.85;;;;;;;6.34;59.69;102204.05;1757867;81;21339;-42
2021/03/31 06:29:43;;;;;;;11.63;7.03;;;;;;;6.50;59.62;102200.19;1732130;81;21028;-42
2021/03/31 06:32:18;;;;;;;14.07;7.33;;;;;;;6.60;58.59;102195.72;1757888;81;21100;-42
2021/03/31 06:34:56;;;;;;;8.98;7.10;;;;;;;6.65;57.30;102189.41;1757817;80;21021;-42
2021/03/31 06:37:28;;;;;;;12.47;7.10;;;;;;;6.49;57.04;102192.02;1757864;81;20954;-42
2021/03/31 06:39:56;;;;;;;10.30;6.62;;;;;;;6.36;57.55;102186.07;1757840;80;21421;-42
2021/03/31 06:45:21;;;;;;;12.05;6.60;;;;;;;6.14;57.44;102182.91;1889926;76;22594;-41
2021/03/31 06:50:17;;;;;;;17.65;10.43;;;;;;;6.31;57.65;102191.97;1801423;77;21209;-42
2021/03/31 06:52:58;;;;;;;16.62;9.20;;;;;;;6.50;57.73;102191.18;1860694;77;20982;-42
2021/03/31 06:55:28;;;;;;;14.53;9.85;;;;;;;6.59;58.09;102183.69;1860699;77;20887;-42
2021/03/31 06:58:01;;;;;;;14.90;11.57;;;;;;;6.70;57.87;102183.97;1860794;77;21451;-42
2021/03/31 07:00:33;;;;;;;19.75;10.10;;;;;;;6.84;56.72;102181.73;1860754;77;20911;-43
2021/03/31 07:03:07;;;;;;;12.20;10.75;;;;;;;6.86;56.93;102181.35;1860712;77;21387;-42
2021/03/31 07:05:39;;;;;;;18.80;11.78;;;;;;;6.85;56.96;102180.90;1860944;77;21017;-43
2021/03/31 07:08:15;;;;;;;18.90;10.23;;;;;;;6.88;56.35;102176.25;1860781;77;20977;-42
2021/03/31 07:10:54;;;;;;;13.35;8.15;;;;;;;6.97;54.59;102167.45;1860682;77;21002;-42
2021/03/31 07:13:33;;;;;;;19.90;10.05;;;;;;;6.74;54.61;102174.62;1860708;77;21013;-42
2021/03/31 07:16:04;;;;;;;12.13;7.97;;;;;;;6.78;54.52;102173.87;1860710;77;21363;-42
2021/03/31 07:18:33;;;;;;;13.15;10.23;;;;;;;6.75;55.16;102170.78;1860596;77;20982;-42
2021/03/31 07:21:02;;;;;;;9.00;6.45;;;;;;;6.80;54.76;102172.60;1860710;77;21637;-42
2021/03/31 07:23:29;;;;;;;11.45;6.15;;;;;;;6.70;53.60;102168.95;1860580;77;21298;-42
2021/03/31 07:25:57;;;;;;;6.67;5.60;;;;;;;6.58;53.67;102166.94;1860764;77;21447;-42
2021/03/31 07:28:30;;;;;;;8.75;6.60;;;;;;;6.54;53.73;102156.97;1860698;77;21181;-42
2021/03/31 07:30:58;;;;;;;10.82;6.53;;;;;;;6.57;54.00;102152.34;1860620;77;20918;-42
2021/03/31 07:33:27;;;;;;;14.45;6.17;;;;;;;6.67;54.05;102149.14;1860744;77;20997;-42
2021/03/31 07:35:55;;;;;;;9.20;6.60;;;;;;;6.83;53.52;102143.10;1860625;77;21124;-43
2021/03/31 07:38:28;;;;;;;8.40;7.00;;;;;;;7.05;52.53;102141.89;1828090;77;20994;-43
2021/03/31 07:41:00;;;;;;;13.88;8.73;;;;;;;7.09;52.13;102138.55;1856288;77;21355;-43
2021/03/31 07:43:44;;;;;;;9.98;7.95;;;;;;;7.26;52.59;102136.78;1784282;80;21030;-43
2021/03/31 07:46:16;;;;;;;13.85;8.50;;;;;;;7.46;52.42;102135.92;1788001;80;21018;-42
2021/03/31 07:48:45;;;;;;;13.18;8.00;;;;;;;7.67;52.48;102140.64;1783577;80;20987;-43
2021/03/31 07:51:19;;;;;;;14.68;7.50;;;;;;;7.94;51.19;102129.14;1787984;80;21539;-43
2021/03/31 07:53:49;;;;;;;12.30;7.40;;;;;;;8.12;50.91;102128.64;1784409;80;21421;-43
2021/03/31 07:56:27;;;;;;;8.73;6.92;;;;;;;8.22;49.29;102118.48;1787626;80;21421;-43
2021/03/31 07:59:07;;;;;;;8.35;6.35;;;;;;;8.27;49.34;102122.00;1783298;80;21065;-43
2021/03/31 08:01:50;;;;;;;25.82;5.92;;;;;;;8.49;49.20;102119.39;1787408;80;21578;-42
2021/03/31 08:04:22;;;;;;;6.15;4.40;;;;;;;8.74;47.67;102114.66;1783959;80;21006;-42
2021/03/31 08:06:50;;;;;;;13.15;4.47;;;;;;;8.75;45.18;102109.94;1787087;80;21205;-42
2021/03/31 08:09:22;;;;;;;17.45;5.83;;;;;;;8.63;45.57;102106.74;1783784;80;20911;-42
2021/03/31 08:11:54;;;;;;;17.62;7.30;;;;;;;8.73;46.81;102103.45;1787456;80;21552;-43
2021/03/31 08:14:35;;;;;;;20.40;8.40;;;;;;;8.96;46.25;102103.34;1783750;80;21002;-43
2021/03/31 08:17:11;;;;;;;11.93;5.60;;;;;;;9.00;46.95;102101.27;1787426;80;21007;-43
2021/03/31 08:19:44;;;;;;;12.28;5.00;;;;;;;9.32;44.51;102097.81;1783874;80;21381;-44
2021/03/31 08:22:34;;;;;;;8.38;4.58;;;;;;;9.63;43.91;102088.28;1787404;80;21026;-44
2021/03/31 08:25:25;;;;;;;5.25;4.00;;;;;;;10.05;41.15;102079.67;1783885;80;20998;-43
2021/03/31 08:28:06;;;;;;;7.87;4.87;;;;;;;10.34;40.87;102072.59;1775993;80;20999;-42
2021/03/31 08:30:39;;;;;;;5.97;3.85;;;;;;;10.50;38.57;102081.41;1783813;80;20963;-42
2021/03/31 08:33:09;;;;;;;20.40;3.70;;;;;;;10.62;38.82;102078.89;1787475;80;20991;-43
2021/03/31 08:35:39;;;;;;;29.63;6.05;;;;;;;10.95;37.81;102071.34;1783712;80;20951;-43
2021/03/31 08:38:15;;;;;;;42.60;9.48;;;;;;;11.29;39.52;102071.50;1782813;80;21022;-43
2021/03/31 08:40:42;;;;;;;14.03;5.72;;;;;;;11.54;40.19;102057.78;1783722;80;21075;-42
2021/03/31 08:43:11;;;;;;;19.07;6.08;;;;;;;11.59;39.51;102053.46;1787462;80;20943;-42
2021/03/31 08:45:42;;;;;;;12.98;6.90;;;;;;;11.67;38.99;102054.34;1758785;80;21074;-43
2021/03/31 08:48:11;;;;;;;7.22;5.85;;;;;;;11.91;39.57;102052.66;1765361;81;21034;-42
2021/03/31 08:50:41;;;;;;;11.90;5.40;;;;;;;12.05;38.91;102048.39;1825817;78;21049;-43
2021/03/31 08:53:11;;;;;;;8.28;4.45;;;;;;;12.37;38.08;102047.94;1825979;78;21006;-43
2021/03/31 08:55:40;;;;;;;7.83;4.65;;;;;;;12.74;36.97;102036.22;1826071;78;21526;-43
2021/03/31 08:58:11;;;;;;;6.20;4.35;;;;;;;12.96;35.27;102033.98;1826177;78;22273;-43
2021/03/31 09:00:47;;;;;;;38.45;5.62;;;;;;;12.92;35.27;102036.59;1826066;78;21559;-43
2021/03/31 09:03:15;;;;;;;5.70;4.05;;;;;;;13.18;36.34;102033.03;1826011;78;20998;-44
2021/03/31 09:05:57;;;;;;;2.75;2.55;;;;;;;13.44;35.10;102012.57;1825915;78;21021;-44
2021/03/31 09:08:26;;;;;;;63.58;8.53;;;;;;;13.16;30.86;102020.94;1826029;78;21564;-43
2021/03/31 09:11:01;;;;;;;3.83;1.75;;;;;;;12.94;31.70;102021.86;1825916;78;21361;-43
2021/03/31 09:13:32;;;;;;;7.12;4.25;;;;;;;12.63;28.55;102010.67;1825968;78;20947;-43
2021/03/31 09:16:08;;;;;;;5.75;3.45;;;;;;;12.10;30.72;102018.52;1825956;78;20990;-43
2021/03/31 09:18:42;;;;;;;6.33;4.30;;;;;;;12.16;31.47;102017.67;1825974;78;21042;-43
2021/03/31 09:21:12;;;;;;;7.37;4.72;;;;;;;12.42;29.91;102014.19;1826158;78;21018;-43
2021/03/31 09:23:46;;;;;;;3.35;2.70;;;;;;;12.30;29.92;102014.65;1826048;78;21186;-43
2021/03/31 09:26:13;;;;;;;3.45;2.52;;;;;;;12.26;29.34;102012.92;1826018;78;20926;-43
2021/03/31 09:28:42;;;;;;;2.75;1.70;;;;;;;12.03;30.14;102009.90;1826015;78;21006;-43
2021/03/31 09:31:20;;;;;;;4.33;1.90;;;;;;;11.91;31.34;102007.25;1826013;78;21057;-43
2021/03/31 09:33:44;;;;;;;2.72;1.82;;;;;;;11.75;30.83;101997.30;1824731;78;20998;-43
2021/03/31 09:36:15;;;;;;;4.87;2.10;;;;;;;11.56;32.67;102001.14;1825869;78;21132;-43
2021/03/31 09:38:55;;;;;;;2.95;1.90;;;;;;;11.69;32.30;101999.88;1826010;78;21053;-43
2021/03/31 09:41:24;;;;;;;2.52;1.60;;;;;;;11.65;32.13;101996.41;1825964;78;21622;-43
2021/03/31 09:43:53;;;;;;;2.37;2.17;;;;;;;11.50;32.30;101994.66;1825868;77;20978;-44
2021/03/31 09:46:26;;;;;;;2.58;2.02;;;;;;;11.33;32.85;101989.43;1789333;80;21071;-43
2021/03/31 09:48:54;;;;;;;2.80;2.60;;;;;;;11.32;34.28;101993.73;1792975;80;21506;-43
2021/03/31 09:51:22;;;;;;;2.33;2.05;;;;;;;11.48;34.58;101989.45;1789243;80;21085;-43
2021/03/31 09:53:52;;;;;;;5.50;3.20;;;;;;;11.67;35.06;101989.94;1792929;80;21014;-43
2021/03/31 09:56:22;;;;;;;4.22;3.25;;;;;;;11.84;35.85;101986.91;1789246;80;21097;-43
2021/03/31 10:57:10;;;;;;;6.00;3.30;;;;;;;12.88;37.20;101924.44;1863626;74;22893;-44
2021/03/31 10:59:35;;;;;;;5.85;3.27;;;;;;;13.05;36.78;101919.59;1826552;77;21036;-44
2021/03/31 11:02:03;;;;;;;9.55;6.17;;;;;;;13.28;36.29;101909.50;1845236;77;21192;-44
2021/03/31 11:04:32;;;;;;;9.20;6.85;;;;;;;13.23;36.63;101919.47;1832475;77;21534;-44
2021/03/31 11:07:00;;;;;;;5.08;4.35;;;;;;;13.20;35.85;101912.14;1832448;77;21017;-44
2021/03/31 11:09:28;;;;;;;2.92;2.72;;;;;;;13.16;35.89;101906.08;1854195;77;20935;-43
2021/03/31 11:11:57;;;;;;;2.42;2.10;;;;;;;13.19;35.16;101904.77;1839162;77;21009;-44
2021/03/31 11:14:28;;;;;;;3.02;2.77;;;;;;;13.11;35.28;101901.78;1771047;80;20986;-44
2021/03/31 11:17:02;;;;;;;3.10;2.80;;;;;;;13.19;35.95;101903.46;1758247;80;21025;-44
2021/03/31 11:27:41;;;;;;;3.40;2.98;;;;;;;13.13;35.28;101886.61;1769078;80;21259;-44
2021/03/31 11:30:14;;;;;;;3.30;2.80;;;;;;;13.10;35.51;101895.73;1780063;80;21614;-44
2021/03/31 11:32:42;;;;;;;7.42;3.10;;;;;;;13.13;35.91;101890.51;1771955;80;21062;-44
2021/03/31 11:35:12;;;;;;;9.38;3.10;;;;;;;13.11;36.32;101884.45;1801861;78;21084;-44
2021/03/31 11:37:40;;;;;;;5.17;2.80;;;;;;;12.98;35.88;101884.09;1772670;80;21435;-44
2021/03/31 11:40:12;;;;;;;3.12;2.75;;;;;;;12.98;36.01;101886.27;1770547;80;21661;-44
2021/03/31 11:42:39;;;;;;;3.75;2.77;;;;;;;13.02;36.13;101879.33;1765892;79;21243;-44
2021/03/31 11:45:10;;;;;;;10.32;6.10;;;;;;;12.98;36.36;101881.07;1819584;78;21507;-44
2021/03/31 11:47:40;;;;;;;2.15;1.95;;;;;;;13.01;36.49;101877.15;1769095;80;21057;-44
2021/03/31 11:50:09;;;;;;;1.00;1.00;;;;;;;13.13;35.21;101875.33;1768744;80;20935;-44
2021/03/31 11:52:37;;;;;;;1.60;1.50;;;;;;;13.19;34.19;101874.02;1802758;78;21376;-44
2021/03/31 11:55:08;;;;;;;1.92;1.80;;;;;;;13.20;34.63;101873.14;1768670;80;21041;-44
2021/03/31 11:57:37;;;;;;;1.72;1.47;;;;;;;13.31;34.91;101875.22;1809702;78;21104;-44
2021/03/31 12:00:08;;;;;;;1.35;1.27;;;;;;;13.32;34.37;101869.59;1763388;80;21549;-45
2021/03/31 12:02:37;;;;;;;1.47;1.37;;;;;;;13.40;34.50;101868.23;1808607;78;20974;-44
2021/03/31 12:05:07;;;;;;;1.70;1.17;;;;;;;13.55;33.38;101862.92;1765434;80;21387;-44
2021/03/31 12:07:36;;;;;;;2.08;1.12;;;;;;;13.54;32.73;101870.30;1760367;80;21143;-44
2021/03/31 12:10:08;;;;;;;2.15;1.95;;;;;;;13.36;33.48;101865.63;1785680;80;21013;-45
2021/03/31 12:12:38;;;;;;;2.10;1.90;;;;;;;13.22;33.79;101861.84;1778813;80;21054;-44
2021/03/31 12:15:09;;;;;;;6.55;2.30;;;;;;;13.34;33.95;101860.04;1771384;80;21602;-44
2021/03/31 12:20:18;;;;;;;14.50;2.92;;;;;;;13.97;34.19;101841.70;1846987;76;23199;-43
2021/03/31 12:22:47;;;;;;;4.10;3.15;;;;;;;14.18;33.36;101841.93;1817833;79;21037;-43
2021/03/31 12:25:15;;;;;;;5.12;4.62;;;;;;;14.34;32.67;101834.80;1817654;79;21362;-43
2021/03/31 12:27:45;;;;;;;10.78;8.33;;;;;;;14.15;31.92;101834.58;1817700;79;21059;-43
2021/03/31 12:30:14;;;;;;;12.13;9.25;;;;;;;13.73;33.26;101831.97;1817765;79;20991;-43
2021/03/31 12:32:41;;;;;;;15.10;10.80;;;;;;;13.92;32.78;101831.37;1817802;79;21562;-43
2021/03/31 12:35:11;;;;;;;12.05;10.13;;;;;;;14.07;32.70;101825.55;1817842;79;21588;-43
2021/03/31 12:37:39;;;;;;;12.07;9.43;;;;;;;14.22;32.78;101816.70;1817728;79;21352;-43
2021/03/31 12:40:08;;;;;;;8.05;7.10;;;;;;;14.38;32.82;101813.45;1817630;79;20891;-43
2021/03/31 12:42:36;;;;;;;7.75;6.10;;;;;;;14.49;32.64;101811.59;1817706;78;21144;-43
2021/03/31 12:45:06;;;;;;;9.18;7.12;;;;;;;14.51;32.66;101815.03;1817669;79;21467;-43
2021/03/31 12:47:36;;;;;;;7.42;5.80;;;;;;;14.46;33.21;101806.42;1817267;79;20995;-43
2021/03/31 12:50:06;;;;;;;7.65;6.42;;;;;;;14.41;33.78;101807.36;1817788;77;21185;-43
2021/03/31 12:52:57;;;;;;;7.70;6.37;;;;;;;14.54;33.54;101801.12;1817786;79;20891;-44
2021/03/31 12:55:11;;;;;;;8.70;6.83;;;;;;;14.85;33.36;101792.01;1805013;79;20930;-42
2021/03/31 12:57:40;;;;;;;11.38;5.95;;;;;;;14.80;32.92;101786.42;1785475;79;20979;-43
2021/03/31 13:00:10;;;;;;;4.03;3.72;;;;;;;14.90;32.56;101778.03;1785594;79;20927;-43
2021/03/31 13:02:40;;;;;;;5.53;4.12;;;;;;;14.84;32.80;101779.86;1781002;80;21426;-43
2021/03/31 13:05:11;;;;;;;7.97;4.58;;;;;;;14.98;32.67;101777.91;1781054;80;20986;-43
2021/03/31 13:07:42;;;;;;;6.60;5.22;;;;;;;15.14;32.39;101768.09;1781593;80;21593;-43
2021/03/31 13:10:11;;;;;;;4.75;4.03;;;;;;;15.29;32.69;101768.73;1780914;80;21041;-43
2021/03/31 13:12:50;;;;;;;9.88;4.25;;;;;;;15.05;32.99;101761.73;1781323;80;21010;-43
2021/03/31 13:15:31;;;;;;;9.03;5.30;;;;;;;14.69;32.51;101763.98;1780920;80;21377;-44